createdAt,value
2023-10-25T00:01:48.998Z,12.70
2023-10-25T00:04:16.294Z,12.70
2023-10-25T00:06:43.602Z,12.70
2023-10-25T00:09:10.772Z,12.80
2023-10-25T00:11:37.857Z,12.80
2023-10-25T00:14:05.142Z,12.80
2023-10-25T00:16:32.256Z,12.80
2023-10-25T00:18:59.453Z,12.90
2023-10-25T00:21:26.531Z,12.90
2023-10-25T00:23:53.389Z,12.90
2023-10-25T00:26:20.287Z,12.90
2023-10-25T00:28:47.310Z,12.80
2023-10-25T00:31:14.418Z,12.80
2023-10-25T00:33:41.702Z,12.80
2023-10-25T00:36:08.631Z,12.80
2023-10-25T00:38:35.627Z,12.80
2023-10-25T00:41:02.742Z,12.80
2023-10-25T00:43:29.659Z,12.80
2023-10-25T00:46:15.090Z,12.90
2023-10-25T00:48:47.370Z,12.80
2023-10-25T00:51:16.323Z,12.80
2023-10-25T00:53:47.549Z,12.80
2023-10-25T00:56:15.781Z,12.80
2023-10-25T00:58:45.949Z,12.70
2023-10-25T01:01:16.359Z,12.80
2023-10-25T01:03:43.645Z,12.80
2023-10-25T01:06:11.345Z,12.80
2023-10-25T01:08:38.696Z,12.80
2023-10-25T01:11:06.081Z,12.80
2023-10-25T01:13:33.146Z,12.70
2023-10-25T01:16:00.250Z,12.80
2023-10-25T01:18:27.290Z,12.80
2023-10-25T01:20:54.187Z,12.80
2023-10-25T01:23:21.351Z,12.80
2023-10-25T01:25:48.744Z,12.70
2023-10-25T01:28:15.776Z,12.70
2023-10-25T01:30:43.271Z,12.70
2023-10-25T01:33:10.441Z,12.60
2023-10-25T01:35:37.524Z,12.70
2023-10-25T01:38:04.773Z,12.80
2023-10-25T01:40:31.724Z,12.70
2023-10-25T01:42:59.003Z,12.70
2023-10-25T01:45:28.424Z,12.70
2023-10-25T01:47:55.796Z,12.70
2023-10-25T01:50:23.393Z,12.60
2023-10-25T01:52:50.588Z,12.60
2023-10-25T01:55:17.831Z,12.60
2023-10-25T01:57:46.024Z,12.50
2023-10-25T02:00:13.392Z,12.50
2023-10-25T02:02:40.725Z,12.50
2023-10-25T02:05:08.240Z,12.50
2023-10-25T02:07:35.834Z,12.40
2023-10-25T02:10:03.935Z,12.40
2023-10-25T02:12:30.949Z,12.40
2023-10-25T02:14:58.038Z,12.40
2023-10-25T02:17:25.169Z,12.50
2023-10-25T02:19:52.435Z,12.50
2023-10-25T02:22:19.465Z,12.50
2023-10-25T02:24:46.548Z,12.50
2023-10-25T02:27:13.784Z,12.40
2023-10-25T02:29:41.135Z,12.40
2023-10-25T02:32:10.740Z,12.40
2023-10-25T02:34:38.350Z,12.50
2023-10-25T02:37:05.664Z,12.50
2023-10-25T02:39:32.966Z,12.60
2023-10-25T02:41:59.937Z,12.60
2023-10-25T02:44:26.886Z,12.60
2023-10-25T02:46:58.466Z,12.60
2023-10-25T02:49:25.668Z,12.60
2023-10-25T02:51:52.949Z,12.60
2023-10-25T02:54:20.198Z,12.60
2023-10-25T02:56:47.397Z,12.50
2023-10-25T02:59:14.354Z,12.50
2023-10-25T03:01:41.517Z,12.50
2023-10-25T03:04:09.268Z,12.60
2023-10-25T03:06:36.331Z,12.60
2023-10-25T03:09:03.432Z,12.60
2023-10-25T03:11:30.418Z,12.60
2023-10-25T03:13:57.334Z,12.60
2023-10-25T03:16:24.311Z,12.60
2023-10-25T03:18:51.404Z,12.60
2023-10-25T03:21:18.310Z,12.60
2023-10-25T03:23:45.201Z,12.60
2023-10-25T03:26:13.396Z,12.50
2023-10-25T03:28:41.488Z,12.50
2023-10-25T03:31:09.900Z,12.50
2023-10-25T03:33:37.645Z,12.60
2023-10-25T03:36:05.183Z,12.60
2023-10-25T03:38:32.162Z,12.70
2023-10-25T03:41:06.991Z,12.60
2023-10-25T03:43:35.382Z,12.60
2023-10-25T03:46:09.902Z,12.50
2023-10-25T03:48:38.151Z,12.50
2023-10-25T03:51:06.158Z,12.50
2023-10-25T03:53:40.740Z,12.50
2023-10-25T03:56:07.757Z,12.60
2023-10-25T03:58:34.989Z,12.60
2023-10-25T04:01:05.066Z,12.50
2023-10-25T04:03:33.430Z,12.60
2023-10-25T04:06:00.648Z,12.60
2023-10-25T04:08:27.563Z,12.60
2023-10-25T04:10:58.836Z,12.60
2023-10-25T04:13:26.539Z,12.60
2023-10-25T04:16:05.392Z,12.60
2023-10-25T04:18:33.787Z,12.60
2023-10-25T04:21:01.609Z,12.60
2023-10-25T04:23:32.283Z,12.60
2023-10-25T04:26:12.029Z,12.50
2023-10-25T04:28:40.552Z,12.50
2023-10-25T04:31:11.819Z,12.40
2023-10-25T04:33:40.201Z,12.40
2023-10-25T04:36:08.006Z,12.40
2023-10-25T04:38:38.192Z,12.50
2023-10-25T04:41:05.064Z,12.50
2023-10-25T04:43:32.452Z,12.50
2023-10-25T04:46:00.310Z,12.40
2023-10-25T04:48:27.340Z,12.40
2023-10-25T04:50:54.401Z,12.40
2023-10-25T04:53:21.374Z,12.50
2023-10-25T04:55:48.751Z,12.40
2023-10-25T04:58:15.757Z,12.50
2023-10-25T05:00:42.830Z,12.50
2023-10-25T05:03:13.135Z,12.50
2023-10-25T05:05:41.148Z,12.50
2023-10-25T05:08:11.916Z,12.50
2023-10-25T05:10:39.246Z,12.60
2023-10-25T05:13:06.840Z,12.50
2023-10-25T05:15:37.535Z,12.50
2023-10-25T05:18:05.122Z,12.40
2023-10-25T05:20:32.895Z,12.50
2023-10-25T05:23:03.507Z,12.50
2023-10-25T05:25:30.866Z,12.40
2023-10-25T05:27:57.969Z,12.40
2023-10-25T05:30:25.668Z,12.30
2023-10-25T05:32:56.288Z,12.30
2023-10-25T05:35:23.810Z,12.30
2023-10-25T05:37:51.061Z,12.40
2023-10-25T05:40:20.760Z,12.50
2023-10-25T05:42:49.737Z,12.50
2023-10-25T05:45:17.624Z,12.50
2023-10-25T05:47:44.994Z,12.50
2023-10-25T05:50:12.926Z,12.60
2023-10-25T05:52:45.889Z,12.60
2023-10-25T05:55:17.867Z,12.60
2023-10-25T05:57:47.453Z,12.50
2023-10-25T06:00:15.839Z,12.50
2023-10-25T06:02:45.036Z,12.40
2023-10-25T06:05:16.883Z,12.50
2023-10-25T06:07:44.685Z,12.50
2023-10-25T06:10:15.385Z,12.50
2023-10-25T06:12:43.079Z,12.70
2023-10-25T06:15:11.867Z,12.60
2023-10-25T06:17:39.353Z,12.70
2023-10-25T06:20:07.264Z,12.80
2023-10-25T06:22:34.473Z,12.80
2023-10-25T06:25:01.529Z,12.80
2023-10-25T06:27:28.490Z,12.70
2023-10-25T06:29:55.533Z,12.70
2023-10-25T06:32:22.624Z,12.70
2023-10-25T06:34:49.590Z,12.70
2023-10-25T06:37:16.844Z,12.80
2023-10-25T06:39:44.194Z,12.70
2023-10-25T06:42:12.482Z,12.80
2023-10-25T06:44:39.503Z,12.80
2023-10-25T06:47:10.353Z,12.80
2023-10-25T06:49:37.796Z,12.80
2023-10-25T06:52:05.095Z,12.80
2023-10-25T06:54:32.558Z,12.70
2023-10-25T06:57:00.129Z,12.80
2023-10-25T06:59:27.363Z,12.80
2023-10-25T07:02:06.382Z,12.80
2023-10-25T07:04:34.924Z,12.80
2023-10-25T07:07:03.789Z,12.80
2023-10-25T07:09:31.213Z,12.80
2023-10-25T07:11:58.316Z,12.80
2023-10-25T07:14:25.447Z,12.80
2023-10-25T07:16:53.257Z,12.90
2023-10-25T07:19:20.237Z,12.90
2023-10-25T07:21:47.607Z,12.80
2023-10-25T07:24:14.861Z,12.80
2023-10-25T07:26:42.592Z,13.00
2023-10-25T07:29:09.893Z,13.00
2023-10-25T07:31:36.983Z,13.00
2023-10-25T07:34:04.170Z,13.10
2023-10-25T07:36:31.906Z,13.10
2023-10-25T07:38:58.828Z,13.20
2023-10-25T07:41:25.897Z,13.10
2023-10-25T07:43:53.006Z,13.10
2023-10-25T07:46:19.954Z,13.20
2023-10-25T07:48:46.991Z,13.20
2023-10-25T07:51:13.994Z,13.10
2023-10-25T07:53:40.899Z,13.10
2023-10-25T07:58:37.951Z,13.10
2023-10-25T08:01:05.304Z,13.20
2023-10-25T08:03:32.582Z,13.20
2023-10-25T08:05:59.869Z,13.20
2023-10-25T08:08:26.848Z,13.20
2023-10-25T08:11:01.907Z,13.20
2023-10-25T08:13:29.373Z,13.20
2023-10-25T08:16:00.646Z,13.20
2023-10-25T08:18:30.576Z,13.30
2023-10-25T08:21:00.562Z,13.20
2023-10-25T08:23:28.835Z,13.20
2023-10-25T08:26:00.673Z,13.20
2023-10-25T08:28:27.521Z,13.10
2023-10-25T08:30:54.996Z,13.10
2023-10-25T08:33:22.202Z,13.00
2023-10-25T08:35:49.224Z,13.00
2023-10-25T08:38:16.840Z,13.10
2023-10-25T08:40:44.506Z,13.10
2023-10-25T08:43:15.395Z,13.10
2023-10-25T08:45:45.609Z,13.10
2023-10-25T08:48:12.992Z,13.10
2023-10-25T08:50:40.161Z,13.20
2023-10-25T08:53:07.714Z,13.30
2023-10-25T08:55:34.563Z,13.40
2023-10-25T08:58:01.788Z,13.40
2023-10-25T09:00:47.265Z,13.40
2023-10-25T09:03:35.178Z,13.40
2023-10-25T09:06:07.074Z,13.50
2023-10-25T09:08:35.015Z,13.40
2023-10-25T09:11:16.358Z,13.50
2023-10-25T09:13:43.688Z,13.70
2023-10-25T09:16:15.255Z,13.60
2023-10-25T09:18:44.526Z,13.70
2023-10-25T09:21:13.822Z,13.80
2023-10-25T09:23:42.258Z,13.80
2023-10-25T09:26:17.585Z,13.70
2023-10-25T09:28:48.545Z,13.80
2023-10-25T09:31:24.880Z,13.70
2023-10-25T09:33:52.528Z,13.70
2023-10-25T09:36:22.865Z,13.70
2023-10-25T09:38:52.237Z,13.80
2023-10-25T09:41:20.196Z,13.70
2023-10-25T09:43:52.629Z,13.70
2023-10-25T09:46:21.977Z,13.70
2023-10-25T09:49:00.194Z,13.80
2023-10-25T09:52:17.281Z,13.80
2023-10-25T09:54:59.191Z,13.80
2023-10-25T09:57:30.605Z,13.90
2023-10-25T09:59:58.542Z,14.00
2023-10-25T10:02:45.844Z,14.00
2023-10-25T10:05:15.799Z,13.90
2023-10-25T10:08:00.542Z,13.90
2023-10-25T10:10:40.588Z,13.90
2023-10-25T10:13:21.381Z,14.00
2023-10-25T10:16:10.647Z,14.00
2023-10-25T10:18:39.557Z,14.00
2023-10-25T10:21:09.003Z,14.00
2023-10-25T10:23:45.047Z,14.10
2023-10-25T10:26:13.129Z,14.20
2023-10-25T10:28:50.389Z,14.20
2023-10-25T10:31:19.352Z,14.20
2023-10-25T10:33:49.075Z,14.10
2023-10-25T10:36:31.590Z,14.20
2023-10-25T10:39:17.678Z,14.20
2023-10-25T10:41:45.864Z,14.30
2023-10-25T10:44:12.902Z,14.30
2023-10-25T10:47:01.994Z,14.30
2023-10-25T10:49:34.804Z,14.50
2023-10-25T10:52:04.283Z,14.60
2023-10-25T10:54:31.519Z,14.50
2023-10-25T10:56:58.939Z,14.50
2023-10-25T10:59:29.950Z,14.50
2023-10-25T11:01:57.474Z,14.70
2023-10-25T11:04:24.963Z,14.70
2023-10-25T11:06:52.306Z,14.70
2023-10-25T11:09:19.529Z,14.70
2023-10-25T11:11:46.725Z,14.70
2023-10-25T11:14:14.239Z,14.70
2023-10-25T11:16:41.125Z,14.70
2023-10-25T11:19:09.831Z,14.70
2023-10-25T11:21:37.367Z,14.80
2023-10-25T11:24:08.437Z,14.70
2023-10-25T11:26:39.017Z,14.60
2023-10-25T11:29:07.282Z,14.60
2023-10-25T11:31:34.644Z,14.60
2023-10-25T11:34:02.073Z,14.60
2023-10-25T11:36:31.083Z,14.60
2023-10-25T11:39:09.462Z,14.80
2023-10-25T11:41:36.641Z,14.80
2023-10-25T11:44:03.816Z,14.80
2023-10-25T11:46:43.054Z,15.00
2023-10-25T11:49:09.913Z,14.90
2023-10-25T11:51:38.180Z,14.80
2023-10-25T11:54:17.494Z,14.70
2023-10-25T11:56:45.644Z,14.70
2023-10-25T11:59:12.575Z,14.80
2023-10-25T12:01:39.650Z,14.80
2023-10-25T12:04:07.035Z,14.90
2023-10-25T12:06:36.348Z,14.90
2023-10-25T12:09:03.448Z,14.80
2023-10-25T12:11:30.796Z,14.80
2023-10-25T12:13:57.678Z,14.80
2023-10-25T12:16:25.143Z,14.80
2023-10-25T12:18:52.033Z,14.80
2023-10-25T12:21:18.974Z,14.80
2023-10-25T12:23:45.918Z,14.80
2023-10-25T12:26:12.905Z,14.80
2023-10-25T12:28:39.963Z,14.90
2023-10-25T12:31:06.874Z,14.80
2023-10-25T12:33:33.869Z,14.70
2023-10-25T12:36:02.160Z,14.80
2023-10-25T12:38:29.755Z,14.80
2023-10-25T12:40:56.888Z,14.80
2023-10-25T12:43:24.251Z,14.90
2023-10-25T12:45:52.201Z,15.10
2023-10-25T12:48:19.156Z,15.00
2023-10-25T12:50:46.120Z,14.80
2023-10-25T12:53:12.979Z,15.00
2023-10-25T12:55:39.858Z,14.90
2023-10-25T12:58:07.315Z,14.90
2023-10-25T13:00:34.395Z,15.00
2023-10-25T13:03:01.288Z,14.90
2023-10-25T13:05:28.292Z,15.00
2023-10-25T13:07:55.563Z,15.10
2023-10-25T13:10:22.440Z,15.00
2023-10-25T13:12:49.429Z,15.00
2023-10-25T13:15:16.907Z,15.10
2023-10-25T13:17:43.925Z,15.20
2023-10-25T13:20:11.369Z,15.20
2023-10-25T13:22:38.256Z,15.30
2023-10-25T13:25:06.198Z,15.10
2023-10-25T13:27:33.650Z,15.10
2023-10-25T13:30:00.800Z,15.20
2023-10-25T13:32:28.464Z,15.20
2023-10-25T13:34:56.648Z,15.20
2023-10-25T13:37:24.185Z,15.00
2023-10-25T13:39:54.081Z,15.00
2023-10-25T13:42:22.309Z,14.90
2023-10-25T13:44:49.234Z,14.90
2023-10-25T13:47:16.627Z,14.90
2023-10-25T13:49:43.990Z,14.90
2023-10-25T13:52:11.002Z,14.90
2023-10-25T13:54:38.097Z,14.90
2023-10-25T13:57:05.208Z,14.90
2023-10-25T13:59:32.323Z,15.00
2023-10-25T14:01:59.518Z,14.80
2023-10-25T14:04:26.804Z,14.80
2023-10-25T14:06:53.729Z,14.70
2023-10-25T14:09:20.599Z,14.70
2023-10-25T14:11:49.349Z,14.60
2023-10-25T14:14:16.631Z,14.70
2023-10-25T14:16:47.358Z,14.70
2023-10-25T14:19:14.576Z,14.70
2023-10-25T14:21:41.656Z,14.60
2023-10-25T14:24:09.234Z,14.80
2023-10-25T14:26:36.409Z,14.70
2023-10-25T14:29:03.800Z,14.90
2023-10-25T14:31:31.984Z,15.00
2023-10-25T14:33:58.998Z,14.90
2023-10-25T14:36:52.688Z,14.90
2023-10-25T14:39:20.160Z,14.90
2023-10-25T14:41:47.472Z,14.80
2023-10-25T14:44:14.375Z,14.80
2023-10-25T14:46:41.523Z,14.80
2023-10-25T14:49:10.413Z,14.80
2023-10-25T14:51:38.572Z,14.80
2023-10-25T14:54:05.623Z,14.90
2023-10-25T14:56:32.700Z,14.90
2023-10-25T14:59:02.797Z,14.90
2023-10-25T15:01:29.804Z,14.90
2023-10-25T15:03:57.352Z,14.90
2023-10-25T15:06:29.679Z,14.90
2023-10-25T15:08:57.438Z,14.70
2023-10-25T15:11:24.770Z,14.80
2023-10-25T15:13:51.767Z,14.60
2023-10-25T15:16:19.487Z,14.60
2023-10-25T15:18:48.940Z,14.70
2023-10-25T15:21:17.557Z,14.70
2023-10-25T15:23:45.059Z,14.50
2023-10-25T15:26:13.053Z,14.70
2023-10-25T15:28:40.225Z,14.50
2023-10-25T15:31:11.750Z,14.40
2023-10-25T15:33:40.788Z,14.50
2023-10-25T15:36:08.591Z,14.50
2023-10-25T15:38:36.774Z,14.60
2023-10-25T15:41:20.853Z,14.60
2023-10-25T15:43:48.740Z,14.70
2023-10-25T15:46:22.055Z,14.60
2023-10-25T15:48:51.137Z,14.60
2023-10-25T15:51:18.493Z,14.60
2023-10-25T15:53:46.186Z,14.60
2023-10-25T15:56:14.906Z,14.60
2023-10-25T15:58:45.842Z,14.60
2023-10-25T16:01:17.820Z,14.70
2023-10-25T16:03:52.056Z,14.50
2023-10-25T16:06:19.152Z,14.40
2023-10-25T16:08:46.100Z,14.20
2023-10-25T16:11:16.064Z,14.20
2023-10-25T16:13:43.311Z,14.10
2023-10-25T16:16:11.813Z,14.10
2023-10-25T16:18:39.043Z,14.10
2023-10-25T16:21:07.284Z,13.90
2023-10-25T16:23:37.537Z,13.80
2023-10-25T16:26:07.433Z,13.80
2023-10-25T16:28:34.439Z,13.70
2023-10-25T16:31:04.757Z,13.70
2023-10-25T16:33:38.237Z,13.80
2023-10-25T16:36:12.149Z,13.70
2023-10-25T16:38:39.761Z,13.80
2023-10-25T16:41:09.676Z,13.80
2023-10-25T16:43:38.192Z,13.80
2023-10-25T16:46:06.346Z,13.50
2023-10-25T16:48:36.753Z,13.40
2023-10-25T16:51:21.443Z,13.30
2023-10-25T16:53:50.433Z,13.30
2023-10-25T16:56:20.616Z,13.40
2023-10-25T16:58:48.004Z,13.40
2023-10-25T17:01:16.408Z,13.40
2023-10-25T17:03:44.507Z,13.40
2023-10-25T17:06:13.185Z,13.30
2023-10-25T17:08:41.543Z,13.20
2023-10-25T17:11:10.317Z,13.20
2023-10-25T17:13:38.877Z,13.10
2023-10-25T17:16:06.975Z,13.10
2023-10-25T17:18:36.843Z,13.00
2023-10-25T17:21:11.926Z,13.10
2023-10-25T17:23:39.062Z,13.10
2023-10-25T17:26:07.156Z,13.10
2023-10-25T17:28:34.830Z,13.00
2023-10-25T17:31:02.437Z,12.90
2023-10-25T17:33:30.359Z,12.80
2023-10-25T17:35:58.715Z,12.80
2023-10-25T17:38:25.984Z,12.70
2023-10-25T17:40:53.698Z,12.70
2023-10-25T17:43:21.003Z,12.80
2023-10-25T17:46:10.439Z,13.00
2023-10-25T17:48:39.101Z,13.00
2023-10-25T17:51:09.925Z,12.90
2023-10-25T17:53:37.424Z,12.70
2023-10-25T17:56:05.352Z,12.70
2023-10-25T17:58:32.422Z,12.50
2023-10-25T18:01:00.423Z,12.40
2023-10-25T18:03:28.007Z,12.40
2023-10-25T18:05:55.111Z,12.30
2023-10-25T18:08:25.504Z,12.30
2023-10-25T18:10:55.631Z,12.30
2023-10-25T18:13:22.907Z,12.30
2023-10-25T18:15:51.990Z,12.20
2023-10-25T18:18:20.106Z,12.20
2023-10-25T18:20:51.255Z,12.10
2023-10-25T18:23:19.473Z,12.20
2023-10-25T18:25:46.456Z,12.20
2023-10-25T18:28:13.316Z,12.10
2023-10-25T18:32:01.947Z,12.10
2023-10-25T18:33:28.751Z,12.10
2023-10-25T18:35:56.049Z,12.00
2023-10-25T18:38:24.211Z,12.10
2023-10-25T18:40:56.450Z,12.20
2023-10-25T18:43:25.444Z,12.30
2023-10-25T18:46:02.748Z,12.60
2023-10-25T18:48:30.499Z,12.40
2023-10-25T18:51:07.115Z,12.40
2023-10-25T18:53:34.207Z,12.30
2023-10-25T18:56:02.742Z,12.30
2023-10-25T18:58:30.732Z,12.20
2023-10-25T19:00:57.949Z,12.20
2023-10-25T19:03:28.761Z,12.20
2023-10-25T19:06:24.305Z,12.10
2023-10-25T19:08:43.312Z,12.10
2023-10-25T19:11:10.653Z,12.10
2023-10-25T19:13:39.112Z,12.10
2023-10-25T19:16:10.176Z,12.30
2023-10-25T19:18:37.159Z,12.20
2023-10-25T19:21:06.865Z,12.00
2023-10-25T19:23:34.077Z,11.90
2023-10-25T19:26:03.663Z,12.10
2023-10-25T19:28:30.996Z,12.10
2023-10-25T19:30:58.201Z,12.00
2023-10-25T19:33:25.388Z,11.90
2023-10-25T19:35:52.587Z,11.80
2023-10-25T19:38:19.652Z,11.80
2023-10-25T19:40:46.640Z,11.70
2023-10-25T19:43:13.874Z,11.70
2023-10-25T19:45:40.815Z,11.60
2023-10-25T19:48:08.173Z,11.60
2023-10-25T19:50:35.398Z,11.60
2023-10-25T19:53:02.393Z,11.60
2023-10-25T19:55:29.339Z,11.60
2023-10-25T19:57:56.225Z,11.50
2023-10-25T20:00:24.434Z,11.50
2023-10-25T20:02:51.849Z,11.50
2023-10-25T20:05:19.066Z,11.40
2023-10-25T20:07:46.158Z,11.40
2023-10-25T20:10:13.125Z,11.50
2023-10-25T20:12:40.645Z,11.40
2023-10-25T20:15:09.928Z,11.40
2023-10-25T20:17:40.871Z,11.30
2023-10-25T20:20:08.416Z,11.30
2023-10-25T20:22:36.771Z,11.30
2023-10-25T20:25:05.037Z,11.30
2023-10-25T20:27:36.547Z,11.30
2023-10-25T20:30:04.487Z,11.40
2023-10-25T20:32:32.923Z,11.40
2023-10-25T20:35:00.183Z,11.40
2023-10-25T20:37:28.929Z,11.30
2023-10-25T20:39:56.515Z,11.30
2023-10-25T20:42:23.786Z,11.20
2023-10-25T20:44:50.847Z,11.20
2023-10-25T20:47:17.956Z,11.20
2023-10-25T20:49:45.626Z,11.10
2023-10-25T20:52:12.886Z,11.10
2023-10-25T20:54:40.263Z,11.20
2023-10-25T20:57:08.216Z,11.20
2023-10-25T20:59:35.576Z,11.20
2023-10-25T21:02:02.630Z,11.10
2023-10-25T21:04:32.386Z,11.10
2023-10-25T21:06:59.356Z,11.10
2023-10-25T21:09:26.543Z,11.20
2023-10-25T21:11:53.407Z,11.30
2023-10-25T21:14:20.390Z,11.40
2023-10-25T21:16:47.717Z,11.60
2023-10-25T21:19:14.650Z,11.70
2023-10-25T21:21:41.555Z,11.60
2023-10-25T21:24:08.739Z,11.60
2023-10-25T21:26:35.820Z,11.60
2023-10-25T21:29:03.075Z,11.50
2023-10-25T21:31:32.111Z,11.50
2023-10-25T21:33:59.571Z,11.50
2023-10-25T21:36:27.128Z,11.50
2023-10-25T21:38:54.083Z,11.60
2023-10-25T21:41:21.679Z,11.50
2023-10-25T21:43:48.653Z,11.60
2023-10-25T21:46:15.642Z,11.70
2023-10-25T21:48:42.747Z,11.80
2023-10-25T21:51:09.902Z,11.90
2023-10-25T21:53:39.565Z,12.10
2023-10-25T21:56:22.438Z,12.10
2023-10-25T21:59:49.894Z,12.10
2023-10-25T22:01:46.115Z,12.10
2023-10-25T22:04:19.117Z,12.30
2023-10-25T22:06:47.106Z,12.30
2023-10-25T22:09:19.521Z,12.20
2023-10-25T22:11:47.686Z,12.10
2023-10-25T22:14:14.910Z,12.00
2023-10-25T22:16:42.413Z,12.00
2023-10-25T22:19:09.835Z,12.00
2023-10-25T22:21:36.940Z,12.00
2023-10-25T22:24:04.517Z,12.40
2023-10-25T22:26:31.725Z,12.50
2023-10-25T22:29:12.498Z,12.50
2023-10-25T22:31:43.806Z,12.40
2023-10-25T22:34:12.987Z,12.50
2023-10-25T22:36:43.789Z,12.50
2023-10-25T22:39:10.979Z,12.40
2023-10-25T22:41:38.218Z,12.30
2023-10-25T22:44:05.586Z,12.20
2023-10-25T22:46:32.551Z,12.10
2023-10-25T22:48:59.442Z,12.00
2023-10-25T22:51:26.546Z,12.00
2023-10-25T22:53:53.740Z,11.90
2023-10-25T22:56:20.609Z,11.90
2023-10-25T22:58:47.500Z,11.80
2023-10-25T23:01:14.401Z,11.90
2023-10-25T23:03:41.282Z,11.80
2023-10-25T23:06:08.247Z,11.90
2023-10-25T23:08:35.163Z,12.00
2023-10-25T23:11:01.977Z,12.00
2023-10-25T23:13:28.950Z,12.00
2023-10-25T23:16:01.270Z,12.00
2023-10-25T23:18:28.525Z,11.80
2023-10-25T23:20:55.887Z,11.70
2023-10-25T23:23:22.850Z,11.60
2023-10-25T23:25:49.949Z,11.50
2023-10-25T23:28:17.013Z,11.40
2023-10-25T23:30:43.971Z,11.50
2023-10-25T23:33:11.272Z,11.60
2023-10-25T23:35:38.171Z,11.60
2023-10-25T23:38:05.014Z,11.40
2023-10-25T23:40:32.389Z,11.30
2023-10-25T23:42:59.258Z,11.30
2023-10-25T23:45:27.132Z,11.30
2023-10-25T23:47:53.999Z,11.30
2023-10-25T23:50:20.936Z,11.30
2023-10-25T23:52:47.871Z,11.30
2023-10-25T23:55:15.019Z,11.20
2023-10-25T23:57:42.109Z,11.20
